KTWF/TWF METAR and TAF weather

Enter ICAO airport designator
Station Type Date Time Source
KTWF METAR 2024/06/15 22:53 UTC NOAA

KTWF 152253Z 30017G22KT 10SM CLR 22/01 A2996 RMK AO2 PK WND 31026/2241 SLP100 T02170006


Station Type Date Time Source
KTWF Decoded METAR 2024/06/15 22:53 UTC NOAA

JOSLIN FLD-MAGIC VALLEY REGL, ID, United States (KTWF) 42-29N 114-29W 1266M
Jun 15, 2024 - 06:53 PM EDT / 2024.06.15 2253 UTC
Wind: from the WNW (300 degrees) at 20 MPH (17 KT) gusting to 25 MPH (22 KT):0
Visibility: 10 mile(s):0
Sky conditions: clear
Temperature: 71.1 F (21.7 C)
Dew Point: 33.1 F (0.6 C)
Relative Humidity: 24%
Pressure (altimeter): 29.96 in. Hg (1014 hPa)
ob: KTWF 152253Z 30017G22KT 10SM CLR 22/01 A2996 RMK AO2 PK WND 31026/2241 SLP100 T02170006
cycle: 23

Station Type Date Time Source
KTWF TAF 2024/06/15 18:22 UTC NOAA